Nearby METAR Reports

 

ELLX - Luxembourg (aut), Luxembourg
Distance from station: NNE 33km
Updated: 02/10/2022 01:20
Few Clouds
Few Clouds
 Wind from WSW
Wind: WSW 13 km/h
Temperature: 12°C
Dew Point: 11°C
Humidity: 94%
Barometer: 1018 hPa
Clouds: Few Clouds
Visibility: 10 km
Cloud details: Few Clouds 305 m
2022/10/01 23:20 ELLX 012320Z 24007KT 9999 FEW010 12/11 Q1018 NOSIG
LFJL - Metz-Nancy-Lorra, France
Distance from station: SSE 46km
Updated: 02/10/2022 01:00
Overcast
Overcast
 Wind from SW
Wind: SW 20 km/h
Temperature: 13°C
Dew Point: 12°C
Humidity: 94%
Barometer: 1020 hPa
Clouds: Overcast
Visibility: 10 km
Cloud details: Mostly cloudy 1036 m
Mostly cloudy 3962 m
Overcast 6401 m
2022/10/01 23:00 LFJL 012300Z AUTO 22011KT 9999 BKN034 BKN130 OVC210 13/12 Q1020 NOSIG
 
EDDR - Saarbruecken, Germany
Distance from station: E 78km
Updated: 02/10/2022 01:20
Nearby showers, Mostly cloudy
Nearby showers, Mostly cloudy
 Wind from WSW
Wind: WSW 15 km/h
Summary: Nearby Showers
Clouds: Mostly cloudy
Visibility: 10 km
Cloud details: Mostly cloudy 122 m
Mostly cloudy 701 m
2022/10/01 23:20 EDDR 012320Z AUTO 24008KT 200V260 9999 VCSH BKN004 BKN023 FEW///TCU 12/12 Q1019
LFSN - Nancy/Essey, France
Distance from station: S 78km
Updated: 02/10/2022 01:00
Mostly cloudy
Mostly cloudy
 Wind from SW
Wind: SW 11 km/h
Temperature: 13°C
Dew Point: 12°C
Humidity: 94%
Barometer: 1020 hPa
Clouds: Mostly cloudy
Visibility: 10 km
Cloud details: Partly cloudy 1280 m
Mostly cloudy 4267 m
Mostly cloudy 6401 m
2022/10/01 23:00 LFSN 012300Z AUTO 22006KT 190V250 9999 SCT042 BKN140 BKN210 13/12 Q1020